Mebane, North Carolina
Current Conditions -  °F | °C
As of 12:10 AM on Tuesday 23 Dec 2014 (Local Time) from KBUY Reporting Station
Light Rain Light Rain  
Wind Chill: 30°   Ceiling: 200
Heat Index: 36°   Visibility: 4mi
Dew Point: 33°   Wind: 7mph
Humidity: 89%   Direction: 20°NNE
Pressure: 30.03"   Gusts: NA
Location:  36.1°N, 79.27°W
Report Text: KBUY 230510Z AUTO 02006KT 4SM -RA BR OVC002 02/01 A3003 RMK AO2 CIG 001V005 P0002 T00220006
Loading
Personal Weather Stations






























Interactive Weather Map New forecast layout! Learn more

10-Day Weather Forecast

Advertisements
Track Severe Weather on mobile